createdAt,value
2022-09-23T00:01:07.581Z,12.10
2022-09-23T00:03:35.453Z,12.08
2022-09-23T00:06:07.225Z,12.21
2022-09-23T00:14:16.992Z,12.31
2022-09-23T00:16:43.612Z,12.37
2022-09-23T00:19:10.224Z,12.41
2022-09-23T00:21:36.777Z,12.43
2022-09-23T00:24:03.594Z,12.45
2022-09-23T00:26:30.161Z,12.46
2022-09-23T00:28:56.737Z,12.46
2022-09-23T00:31:26.007Z,12.48
2022-09-23T00:33:57.363Z,12.46
2022-09-23T00:36:24.914Z,12.38
2022-09-23T00:38:51.804Z,12.30
2022-09-23T00:41:18.499Z,12.31
2022-09-23T00:43:52.865Z,12.31
2022-09-23T00:46:19.455Z,12.31
2022-09-23T00:48:46.740Z,12.31
2022-09-23T00:51:17.947Z,12.23
2022-09-23T00:53:47.384Z,12.20
2022-09-23T00:56:14.275Z,12.12
2022-09-23T00:58:42.932Z,12.17
2022-09-23T01:01:09.652Z,12.28
2022-09-23T01:03:36.329Z,12.35
2022-09-23T01:06:02.961Z,12.35
2022-09-23T01:08:31.243Z,12.36
2022-09-23T01:11:02.748Z,12.37
2022-09-23T01:13:57.088Z,12.39
2022-09-23T01:17:01.002Z,12.40
2022-09-23T01:20:01.029Z,12.34
2022-09-23T01:23:01.565Z,12.28
2022-09-23T01:26:12.971Z,12.25
2022-09-23T01:29:02.315Z,12.27
2022-09-23T01:31:45.452Z,12.26
2022-09-23T01:34:15.989Z,12.20
2022-09-23T01:36:48.610Z,12.13
2022-09-23T01:39:37.353Z,12.10
2022-09-23T01:42:22.305Z,12.17
2022-09-23T01:44:54.187Z,12.17
2022-09-23T01:47:40.184Z,12.16
2022-09-23T01:50:28.994Z,12.16
2022-09-23T01:53:01.717Z,12.22
2022-09-23T01:55:31.449Z,12.25
2022-09-23T01:58:13.276Z,12.23
2022-09-23T02:00:43.473Z,12.17
2022-09-23T02:03:50.097Z,12.13
2022-09-23T02:06:22.838Z,12.14
2022-09-23T02:09:00.403Z,12.12
2022-09-23T02:11:27.573Z,12.11
2022-09-23T02:13:57.896Z,12.12
2022-09-23T02:16:39.953Z,12.12
2022-09-23T02:19:22.568Z,12.12
2022-09-23T02:22:04.271Z,12.09
2022-09-23T02:27:39.757Z,12.11
2022-09-23T02:30:22.142Z,12.08
2022-09-23T02:32:55.086Z,12.09
2022-09-23T02:35:33.321Z,12.10
2022-09-23T02:38:11.778Z,12.09
2022-09-23T02:40:47.870Z,12.12
2022-09-23T02:43:33.902Z,12.10
2022-09-23T02:46:01.361Z,12.08
2022-09-23T02:48:35.952Z,12.09
2022-09-23T02:51:03.714Z,12.05
2022-09-23T02:53:33.847Z,12.02
2022-09-23T02:56:01.454Z,12.04
2022-09-23T02:58:28.914Z,12.05
2022-09-23T03:00:58.533Z,12.00
2022-09-23T03:03:43.904Z,11.99
2022-09-23T03:06:20.875Z,11.96
2022-09-23T03:09:19.044Z,11.97
2022-09-23T03:11:50.270Z,11.97
2022-09-23T03:14:19.873Z,11.97
2022-09-23T03:16:55.876Z,11.98
2022-09-23T03:19:42.355Z,11.96
2022-09-23T03:22:23.713Z,11.93
2022-09-23T03:24:54.036Z,11.89
2022-09-23T03:27:24.161Z,11.90
2022-09-23T03:29:53.445Z,11.91
2022-09-23T03:32:23.276Z,11.90
2022-09-23T03:34:51.932Z,11.94
2022-09-23T03:37:24.479Z,11.87
2022-09-23T03:40:08.515Z,11.77
2022-09-23T03:42:36.704Z,11.77
2022-09-23T03:45:08.357Z,11.66
2022-09-23T03:47:35.347Z,11.71
2022-09-23T03:50:02.079Z,11.82
2022-09-23T03:52:28.987Z,11.77
2022-09-23T03:54:55.584Z,11.87
2022-09-23T03:57:23.734Z,11.92
2022-09-23T03:59:50.868Z,11.90
2022-09-23T04:02:18.910Z,11.96
2022-09-23T04:04:45.932Z,11.99
2022-09-23T04:07:13.333Z,12.00
2022-09-23T04:09:40.227Z,12.02
2022-09-23T04:12:07.104Z,12.05
2022-09-23T04:14:33.725Z,12.03
2022-09-23T04:17:00.326Z,11.99
2022-09-23T04:19:26.952Z,11.85
2022-09-23T04:21:53.565Z,11.66
2022-09-23T04:24:20.505Z,11.61
2022-09-23T04:26:51.466Z,11.68
2022-09-23T04:29:18.193Z,11.68
2022-09-23T04:31:44.959Z,11.69
2022-09-23T04:34:12.281Z,11.70
2022-09-23T04:36:38.866Z,11.68
2022-09-23T04:39:05.806Z,11.77
2022-09-23T04:41:32.494Z,11.81
2022-09-23T04:43:59.119Z,11.84
2022-09-23T04:46:25.807Z,11.82
2022-09-23T04:48:52.420Z,11.83
2022-09-23T04:51:22.780Z,11.80
2022-09-23T04:53:50.392Z,11.76
2022-09-23T04:56:26.328Z,11.74
2022-09-23T04:58:53.885Z,11.74
2022-09-23T05:01:27.501Z,11.72
2022-09-23T05:03:57.888Z,11.62
2022-09-23T05:06:25.500Z,11.61
2022-09-23T05:08:56.072Z,11.69
2022-09-23T05:11:23.295Z,11.71
2022-09-23T05:13:51.616Z,11.73
2022-09-23T05:16:18.686Z,11.74
2022-09-23T05:18:46.413Z,11.75
2022-09-23T05:21:15.678Z,11.76
2022-09-23T05:23:43.163Z,11.80
2022-09-23T05:26:11.486Z,11.81
2022-09-23T05:28:39.440Z,11.79
2022-09-23T05:31:20.292Z,11.77
2022-09-23T05:33:52.711Z,11.78
2022-09-23T05:36:21.352Z,11.73
2022-09-23T05:38:50.074Z,11.71
2022-09-23T05:41:18.165Z,11.67
2022-09-23T05:43:45.090Z,11.67
2022-09-23T05:46:14.087Z,11.69
2022-09-23T05:48:42.442Z,11.68
2022-09-23T05:51:13.300Z,11.70
2022-09-23T05:53:42.706Z,11.70
2022-09-23T05:56:09.393Z,11.74
2022-09-23T05:58:36.009Z,11.73
2022-09-23T06:01:09.682Z,11.75
2022-09-23T06:03:36.447Z,11.77
2022-09-23T06:06:03.098Z,11.78
2022-09-23T06:08:29.692Z,11.73
2022-09-23T06:10:56.387Z,11.65
2022-09-23T06:13:22.974Z,11.66
2022-09-23T06:15:50.131Z,11.67
2022-09-23T06:18:17.321Z,11.72
2022-09-23T06:20:43.877Z,11.72
2022-09-23T06:23:11.497Z,11.77
2022-09-23T06:25:41.561Z,11.78
2022-09-23T06:28:12.218Z,11.80
2022-09-23T06:30:42.632Z,11.67
2022-09-23T06:33:10.110Z,11.76
2022-09-23T06:35:36.990Z,11.82
2022-09-23T06:38:04.789Z,11.81
2022-09-23T06:40:31.808Z,11.83
2022-09-23T06:42:59.582Z,11.86
2022-09-23T06:45:27.211Z,11.96
2022-09-23T06:47:58.229Z,11.98
2022-09-23T06:50:26.655Z,11.99
2022-09-23T06:52:56.859Z,12.02
2022-09-23T06:55:24.859Z,12.04
2022-09-23T06:57:51.486Z,12.03
2022-09-23T07:00:18.457Z,12.04
2022-09-23T07:02:45.741Z,12.02
2022-09-23T07:05:12.661Z,12.03
2022-09-23T07:07:39.447Z,12.02
2022-09-23T07:10:06.915Z,12.06
2022-09-23T07:12:34.127Z,12.08
2022-09-23T07:15:00.770Z,12.06
2022-09-23T07:17:27.660Z,12.09
2022-09-23T07:19:57.397Z,12.10
2022-09-23T07:22:25.825Z,12.11
2022-09-23T07:24:56.347Z,12.08
2022-09-23T07:27:27.319Z,12.12
2022-09-23T07:29:54.857Z,12.11
2022-09-23T07:32:23.098Z,12.13
2022-09-23T07:34:50.002Z,12.17
2022-09-23T07:37:17.352Z,12.22
2022-09-23T07:39:45.110Z,12.25
2022-09-23T07:42:13.502Z,12.24
2022-09-23T07:44:44.667Z,12.29
2022-09-23T07:47:11.489Z,12.30
2022-09-23T07:49:38.459Z,12.33
2022-09-23T07:52:05.407Z,12.37
2022-09-23T07:54:32.218Z,12.40
2022-09-23T07:56:59.728Z,12.40
2022-09-23T07:59:27.278Z,12.45
2022-09-23T08:01:54.463Z,12.48
2022-09-23T08:04:26.696Z,12.50
2022-09-23T08:06:55.773Z,12.55
2022-09-23T08:09:25.328Z,12.57
2022-09-23T08:11:52.534Z,12.58
2022-09-23T08:14:19.491Z,12.62
2022-09-23T08:16:47.720Z,12.65
2022-09-23T08:19:14.894Z,12.68
2022-09-23T08:21:42.057Z,12.71
2022-09-23T08:24:12.650Z,12.72
2022-09-23T08:26:39.293Z,12.72
2022-09-23T08:29:09.803Z,12.74
2022-09-23T08:31:36.490Z,12.73
2022-09-23T08:34:03.485Z,12.79
2022-09-23T08:36:31.252Z,12.81
2022-09-23T08:38:58.161Z,12.81
2022-09-23T08:41:48.752Z,12.80
2022-09-23T08:44:20.304Z,12.81
2022-09-23T08:47:11.314Z,12.79
2022-09-23T08:49:49.145Z,12.81
2022-09-23T08:52:23.466Z,12.84
2022-09-23T08:54:55.139Z,12.84
2022-09-23T08:58:24.540Z,12.86
2022-09-23T09:01:04.011Z,12.87
2022-09-23T09:03:35.915Z,12.91
2022-09-23T09:06:03.033Z,12.94
2022-09-23T09:08:33.768Z,12.94
2022-09-23T09:11:00.863Z,12.95
2022-09-23T09:13:35.457Z,12.94
2022-09-23T09:16:48.345Z,12.95
2022-09-23T09:19:32.358Z,12.97
2022-09-23T09:21:59.185Z,12.99
2022-09-23T09:24:34.507Z,13.05
2022-09-23T09:27:05.904Z,13.05
2022-09-23T09:29:38.985Z,13.07
2022-09-23T09:32:48.466Z,13.06
2022-09-23T09:35:36.804Z,13.10
2022-09-23T09:38:04.276Z,13.13
2022-09-23T09:40:30.958Z,13.13
2022-09-23T09:42:57.919Z,13.15
2022-09-23T09:45:57.591Z,13.20
2022-09-23T09:49:03.779Z,13.26
2022-09-23T09:51:30.476Z,13.33
2022-09-23T09:54:17.379Z,13.34
2022-09-23T09:56:44.942Z,13.39
2022-09-23T09:59:17.303Z,13.39
2022-09-23T10:01:44.163Z,13.42
2022-09-23T10:04:21.859Z,13.47
2022-09-23T10:07:25.452Z,13.52
2022-09-23T10:09:53.907Z,13.48
2022-09-23T10:12:24.535Z,13.46
2022-09-23T10:14:56.024Z,13.51
2022-09-23T10:17:35.520Z,13.55
2022-09-23T10:20:08.221Z,13.56
2022-09-23T10:22:39.090Z,13.59
2022-09-23T10:25:16.435Z,13.60
2022-09-23T10:27:45.597Z,13.62
2022-09-23T10:30:15.317Z,13.59
2022-09-23T10:32:45.017Z,13.59
2022-09-23T10:35:15.238Z,13.66
2022-09-23T10:37:45.441Z,13.78
2022-09-23T10:40:37.858Z,13.82
2022-09-23T10:43:47.513Z,13.83
2022-09-23T10:46:47.686Z,13.82
2022-09-23T10:49:26.386Z,13.87
2022-09-23T10:52:31.880Z,13.91
2022-09-23T10:55:39.319Z,13.93
2022-09-23T10:58:22.098Z,13.96
2022-09-23T11:01:18.689Z,13.99
2022-09-23T11:03:45.959Z,14.02
2022-09-23T11:06:31.948Z,14.02
2022-09-23T11:09:26.820Z,14.01
2022-09-23T11:12:10.701Z,14.03
2022-09-23T11:15:07.616Z,14.01
2022-09-23T11:18:12.627Z,14.01
2022-09-23T11:20:57.336Z,13.88
2022-09-23T11:24:14.543Z,13.87
2022-09-23T11:27:17.704Z,13.84
2022-09-23T11:30:00.542Z,13.83
2022-09-23T11:32:40.323Z,13.85
2022-09-23T11:35:20.506Z,13.83
2022-09-23T11:38:10.869Z,13.79
2022-09-23T11:40:43.936Z,13.78
2022-09-23T11:43:21.720Z,13.70
2022-09-23T11:45:56.472Z,13.74
2022-09-23T11:48:33.711Z,13.70
2022-09-23T11:51:03.799Z,13.71
2022-09-23T11:54:00.450Z,13.71
2022-09-23T11:56:37.011Z,13.70
2022-09-23T11:59:16.742Z,13.72
2022-09-23T12:01:49.920Z,13.69
2022-09-23T12:04:29.178Z,13.72
2022-09-23T12:07:04.287Z,13.69
2022-09-23T12:09:57.673Z,13.66
2022-09-23T12:12:35.457Z,13.66
2022-09-23T12:15:28.088Z,13.72
2022-09-23T12:18:22.980Z,13.72
2022-09-23T12:21:02.509Z,13.70
2022-09-23T12:23:47.959Z,13.73
2022-09-23T12:26:20.718Z,13.73
2022-09-23T12:28:50.204Z,13.76
2022-09-23T12:31:30.544Z,13.78
2022-09-23T12:33:59.744Z,13.78
2022-09-23T12:36:30.132Z,13.76
2022-09-23T12:39:05.683Z,13.78
2022-09-23T12:41:38.946Z,13.75
2022-09-23T12:44:12.889Z,13.75
2022-09-23T12:46:43.581Z,13.72
2022-09-23T12:49:28.194Z,13.81
2022-09-23T12:52:13.590Z,13.79
2022-09-23T12:54:41.471Z,13.80
2022-09-23T12:57:12.093Z,13.84
2022-09-23T12:59:57.279Z,13.92
2022-09-23T13:02:28.336Z,14.00
2022-09-23T13:05:38.099Z,13.98
2022-09-23T13:08:12.711Z,14.02
2022-09-23T13:10:46.627Z,14.13
2022-09-23T13:13:20.461Z,14.23
2022-09-23T13:15:47.269Z,14.22
2022-09-23T13:18:22.633Z,14.24
2022-09-23T13:20:54.149Z,14.30
2022-09-23T13:23:22.483Z,14.35
2022-09-23T13:25:51.566Z,14.27
2022-09-23T13:28:47.435Z,14.16
2022-09-23T13:31:16.844Z,14.12
2022-09-23T13:33:53.204Z,14.27
2022-09-23T13:36:21.141Z,14.34
2022-09-23T13:38:48.350Z,14.39
2022-09-23T13:41:20.226Z,14.43
2022-09-23T13:43:58.764Z,14.35
2022-09-23T13:46:42.870Z,14.35
2022-09-23T13:49:22.292Z,14.32
2022-09-23T13:51:55.909Z,14.31
2022-09-23T13:54:46.850Z,14.31
2022-09-23T13:57:33.869Z,14.38
2022-09-23T14:00:17.712Z,14.43
2022-09-23T14:02:45.472Z,14.46
2022-09-23T14:05:14.368Z,14.55
2022-09-23T14:07:41.032Z,14.53
2022-09-23T14:10:08.107Z,14.67
2022-09-23T14:12:39.356Z,14.66
2022-09-23T14:15:07.291Z,14.75
2022-09-23T14:17:33.927Z,14.55
2022-09-23T14:20:01.138Z,14.42
2022-09-23T14:22:29.036Z,14.50
2022-09-23T14:24:56.643Z,14.64
2022-09-23T14:27:36.493Z,14.60
2022-09-23T14:30:04.156Z,14.42
2022-09-23T14:32:32.493Z,14.29
2022-09-23T14:35:05.015Z,14.25
2022-09-23T14:37:57.949Z,14.20
2022-09-23T14:40:28.719Z,14.21
2022-09-23T14:43:18.254Z,14.21
2022-09-23T14:45:47.384Z,14.16
2022-09-23T14:48:17.056Z,14.20
2022-09-23T14:50:57.914Z,14.22
2022-09-23T14:53:33.460Z,14.25
2022-09-23T14:56:06.086Z,14.29
2022-09-23T14:58:52.849Z,14.35
2022-09-23T15:01:27.903Z,14.32
2022-09-23T15:03:55.838Z,14.25
2022-09-23T15:06:23.427Z,14.23
2022-09-23T15:08:54.627Z,14.27
2022-09-23T15:11:25.260Z,14.27
2022-09-23T15:13:52.856Z,14.22
2022-09-23T15:16:27.045Z,14.17
2022-09-23T15:18:57.976Z,14.14
2022-09-23T15:21:25.904Z,14.12
2022-09-23T15:23:54.931Z,14.10
2022-09-23T15:26:26.450Z,14.06
2022-09-23T15:28:56.113Z,14.04
2022-09-23T15:31:25.573Z,14.01
2022-09-23T15:33:52.354Z,14.02
2022-09-23T15:36:25.464Z,14.01
2022-09-23T15:38:52.460Z,13.99
2022-09-23T15:41:19.421Z,13.99
2022-09-23T15:43:46.990Z,14.00
2022-09-23T15:46:25.525Z,13.99
2022-09-23T15:48:58.990Z,13.99
2022-09-23T15:51:26.760Z,13.99
2022-09-23T15:53:54.994Z,13.98
2022-09-23T15:56:22.767Z,13.96
2022-09-23T15:58:49.765Z,13.95
2022-09-23T16:01:28.336Z,13.95
2022-09-23T16:03:55.877Z,13.96
2022-09-23T16:06:24.355Z,13.96
2022-09-23T16:08:52.238Z,13.98
2022-09-23T16:11:20.628Z,13.99
2022-09-23T16:13:47.222Z,13.99
2022-09-23T16:16:13.897Z,13.98
2022-09-23T16:18:43.763Z,13.95
2022-09-23T16:21:13.039Z,13.96
2022-09-23T16:23:47.494Z,13.97
2022-09-23T16:26:21.870Z,13.95
2022-09-23T16:28:49.782Z,13.94
2022-09-23T16:31:17.147Z,13.94
2022-09-23T16:33:44.862Z,13.96
2022-09-23T16:36:21.230Z,13.96
2022-09-23T16:38:48.212Z,13.94
2022-09-23T16:41:15.013Z,13.94
2022-09-23T16:43:41.980Z,13.92
2022-09-23T16:46:12.239Z,13.91
2022-09-23T16:48:40.596Z,13.91
2022-09-23T16:51:20.095Z,13.91
2022-09-23T16:53:49.328Z,13.88
2022-09-23T16:56:17.667Z,13.87
2022-09-23T16:58:44.852Z,13.87
2022-09-23T17:01:36.026Z,13.86
2022-09-23T17:04:03.787Z,13.86
2022-09-23T17:06:30.475Z,13.86
2022-09-23T17:08:57.100Z,13.85
2022-09-23T17:11:23.770Z,13.85
2022-09-23T17:13:50.724Z,13.84
2022-09-23T17:16:26.404Z,13.83
2022-09-23T17:18:55.497Z,13.82
2022-09-23T17:21:26.623Z,13.80
2022-09-23T17:23:57.673Z,13.79
2022-09-23T17:26:25.654Z,13.79
2022-09-23T17:28:54.387Z,13.78
2022-09-23T17:31:24.865Z,13.78
2022-09-23T17:33:52.836Z,13.79
2022-09-23T17:36:20.207Z,13.78
2022-09-23T17:38:48.280Z,13.78
2022-09-23T17:41:15.661Z,13.79
2022-09-23T17:43:42.255Z,13.78
2022-09-23T17:46:11.388Z,13.75
2022-09-23T17:48:41.352Z,13.72
2022-09-23T17:51:11.634Z,13.71
2022-09-23T17:53:39.214Z,13.72
2022-09-23T17:56:08.334Z,13.70
2022-09-23T17:58:36.792Z,13.67
2022-09-23T18:01:04.871Z,13.65
2022-09-23T18:03:32.116Z,13.65
2022-09-23T18:06:13.701Z,13.66
2022-09-23T18:08:41.955Z,13.62
2022-09-23T18:11:18.949Z,13.59
2022-09-23T18:13:53.673Z,13.59
2022-09-23T18:16:21.936Z,13.58
2022-09-23T18:18:56.318Z,13.56
2022-09-23T18:21:24.486Z,13.57
2022-09-23T18:23:51.244Z,13.58
2022-09-23T18:26:19.881Z,13.60
2022-09-23T18:28:48.134Z,13.63
2022-09-23T18:31:15.433Z,13.64
2022-09-23T18:33:42.152Z,13.65
2022-09-23T18:36:08.959Z,13.65
2022-09-23T18:38:35.733Z,13.67
2022-09-23T18:41:02.417Z,13.65
2022-09-23T18:43:37.207Z,13.67
2022-09-23T18:46:12.346Z,13.66
2022-09-23T18:48:57.996Z,13.66
2022-09-23T18:51:26.192Z,13.68
2022-09-23T18:53:57.594Z,13.66
2022-09-23T18:56:26.720Z,13.57
2022-09-23T18:58:54.750Z,13.51
2022-09-23T19:01:22.770Z,13.47
2022-09-23T19:03:55.073Z,13.45
2022-09-23T19:06:22.656Z,13.43
2022-09-23T19:08:53.557Z,13.42
2022-09-23T19:11:21.953Z,13.40
2022-09-23T19:13:56.733Z,13.39
2022-09-23T19:16:23.898Z,13.40
2022-09-23T19:18:51.204Z,13.40
2022-09-23T19:21:20.696Z,13.38
2022-09-23T19:23:49.489Z,13.36
2022-09-23T19:26:24.835Z,13.34
2022-09-23T19:28:53.283Z,13.36
2022-09-23T19:31:23.012Z,13.38
2022-09-23T19:33:57.404Z,13.41
2022-09-23T19:36:31.774Z,13.41
2022-09-23T19:39:04.836Z,13.41
2022-09-23T19:41:33.344Z,13.44
2022-09-23T19:44:07.642Z,13.41
2022-09-23T19:46:39.035Z,13.41
2022-09-23T19:49:06.747Z,13.41
2022-09-23T19:51:34.311Z,13.38
2022-09-23T19:54:01.685Z,13.36
2022-09-23T19:56:29.106Z,13.38
2022-09-23T19:58:57.293Z,13.38
2022-09-23T20:01:25.852Z,13.33
2022-09-23T20:03:53.361Z,13.28
2022-09-23T20:06:20.576Z,13.28
2022-09-23T20:08:47.956Z,13.30
2022-09-23T20:11:24.850Z,13.26
2022-09-23T20:13:59.420Z,13.22
2022-09-23T20:16:26.767Z,13.18
2022-09-23T20:18:54.165Z,13.16
2022-09-23T20:21:20.743Z,13.23
2022-09-23T20:23:47.468Z,13.19
2022-09-23T20:26:32.849Z,13.13
2022-09-23T20:29:02.485Z,13.14
2022-09-23T20:31:29.304Z,13.18
2022-09-23T20:33:59.852Z,13.18
2022-09-23T20:36:27.956Z,13.23
2022-09-23T20:39:00.474Z,13.23
2022-09-23T20:41:31.409Z,13.23
2022-09-23T20:44:01.482Z,13.26
2022-09-23T20:46:28.925Z,13.26
2022-09-23T20:48:56.167Z,13.30
2022-09-23T20:51:24.051Z,13.33
2022-09-23T20:53:52.896Z,13.33
2022-09-23T20:56:20.907Z,13.34
2022-09-23T20:58:48.701Z,13.35
2022-09-23T21:01:15.992Z,13.33
2022-09-23T21:03:45.561Z,13.35
2022-09-23T21:06:16.513Z,13.37
2022-09-23T21:08:44.667Z,13.38
2022-09-23T21:11:13.560Z,13.38
2022-09-23T21:13:40.212Z,13.40
2022-09-23T21:16:10.028Z,13.38
2022-09-23T21:18:37.383Z,13.32
2022-09-23T21:21:05.212Z,13.34
2022-09-23T21:23:35.712Z,13.37
2022-09-23T21:26:11.112Z,13.37
2022-09-23T21:28:44.718Z,13.38
2022-09-23T21:31:25.670Z,13.37
2022-09-23T21:33:56.651Z,13.39
2022-09-23T21:36:24.779Z,13.39
2022-09-23T21:38:52.245Z,13.40
2022-09-23T21:41:19.771Z,13.39
2022-09-23T21:43:46.578Z,13.41
2022-09-23T21:46:14.750Z,13.40
2022-09-23T21:48:42.254Z,13.38
2022-09-23T21:51:11.958Z,13.41
2022-09-23T21:53:39.600Z,13.40
2022-09-23T21:56:19.611Z,13.41
2022-09-23T21:58:47.224Z,13.40
2022-09-23T22:01:21.333Z,13.41
2022-09-23T22:03:54.835Z,13.41
2022-09-23T22:06:27.081Z,13.40
2022-09-23T22:08:55.676Z,13.41
2022-09-23T22:11:42.015Z,13.41
2022-09-23T22:14:11.870Z,13.40
2022-09-23T22:16:39.119Z,13.41
2022-09-23T22:19:09.347Z,13.40
2022-09-23T22:21:38.775Z,13.40
2022-09-23T22:24:07.677Z,13.41
2022-09-23T22:26:36.591Z,13.41
2022-09-23T22:29:22.892Z,13.40
2022-09-23T22:32:08.309Z,13.42
2022-09-23T22:34:51.816Z,13.41
2022-09-23T22:37:21.682Z,13.43
2022-09-23T22:39:48.295Z,13.42
2022-09-23T22:42:14.981Z,13.42
2022-09-23T22:44:41.810Z,13.40
2022-09-23T22:47:09.578Z,13.43
2022-09-23T22:49:36.446Z,13.41
2022-09-23T22:52:04.117Z,13.39
2022-09-23T22:54:34.010Z,13.41
2022-09-23T22:57:04.178Z,13.42
2022-09-23T22:59:31.011Z,13.43
2022-09-23T23:01:59.934Z,13.41
2022-09-23T23:04:27.204Z,13.42
2022-09-23T23:06:53.810Z,13.41
2022-09-23T23:09:20.390Z,13.41
2022-09-23T23:11:47.323Z,13.41
2022-09-23T23:14:16.242Z,13.42
2022-09-23T23:16:43.905Z,13.42
2022-09-23T23:19:13.879Z,13.41
2022-09-23T23:21:44.970Z,13.40
2022-09-23T23:24:20.120Z,13.41
2022-09-23T23:26:47.447Z,13.41
2022-09-23T23:29:15.515Z,13.41
2022-09-23T23:31:42.454Z,13.43
2022-09-23T23:34:13.135Z,13.41
2022-09-23T23:36:41.546Z,13.43
2022-09-23T23:39:08.219Z,13.43
2022-09-23T23:41:34.825Z,13.42
2022-09-23T23:44:01.699Z,13.41
2022-09-23T23:46:30.704Z,13.41
2022-09-23T23:48:57.602Z,13.41
2022-09-23T23:51:26.483Z,13.40
2022-09-23T23:53:54.192Z,13.42
2022-09-23T23:56:22.681Z,13.40
2022-09-23T23:58:56.774Z,13.42
